createdAt,value
2019-05-22T00:01:55.987Z,24.30
2019-05-22T00:04:27.589Z,24.47
2019-05-22T00:07:13.520Z,23.73
2019-05-22T00:09:56.559Z,24.10
2019-05-22T00:12:46.269Z,25.23
2019-05-22T00:15:13.890Z,24.30
2019-05-22T00:17:57.659Z,24.12
2019-05-22T00:20:40.566Z,24.82
2019-05-22T00:23:25.592Z,24.15
2019-05-22T00:26:01.301Z,24.80
2019-05-22T00:28:39.065Z,25.27
2019-05-22T00:31:21.977Z,26.48
2019-05-22T00:34:05.123Z,24.95
2019-05-22T00:36:48.736Z,25.70
2019-05-22T00:42:11.423Z,25.02
2019-05-22T00:44:54.773Z,26.07
2019-05-22T00:47:40.146Z,27.87
2019-05-22T00:50:35.477Z,27.17
2019-05-22T00:53:35.440Z,28.40
2019-05-22T00:56:23.965Z,29.35
2019-05-22T00:59:04.707Z,27.42
2019-05-22T01:01:52.470Z,28.80
2019-05-22T01:04:35.756Z,28.75
2019-05-22T01:07:24.085Z,27.87
2019-05-22T01:10:00.018Z,28.75
2019-05-22T01:12:54.724Z,26.90
2019-05-22T01:15:44.714Z,25.92
2019-05-22T01:18:21.716Z,26.40
2019-05-22T01:21:06.377Z,34.15
2019-05-22T01:23:43.663Z,29.07
2019-05-22T01:26:28.127Z,27.42
2019-05-22T01:29:04.660Z,24.95
2019-05-22T01:31:49.555Z,25.25
2019-05-22T01:34:40.815Z,25.65
2019-05-22T01:37:30.701Z,25.15
2019-05-22T01:40:30.247Z,25.57
2019-05-22T01:43:19.083Z,26.20
2019-05-22T01:46:01.866Z,25.35
2019-05-22T01:48:55.911Z,24.83
2019-05-22T01:51:32.473Z,23.20
2019-05-22T01:54:17.969Z,24.80
2019-05-22T01:57:02.405Z,24.25
2019-05-22T01:59:41.679Z,23.38
2019-05-22T02:02:28.699Z,23.98
2019-05-22T02:05:05.392Z,23.90
2019-05-22T02:07:48.224Z,23.02
2019-05-22T02:10:42.216Z,22.37
2019-05-22T02:16:09.685Z,24.87
2019-05-22T02:18:49.505Z,24.00
2019-05-22T02:21:33.571Z,22.52
2019-05-22T02:24:10.037Z,22.15
2019-05-22T02:26:53.036Z,21.65
2019-05-22T02:29:36.246Z,23.30
2019-05-22T02:32:13.440Z,22.80
2019-05-22T02:34:50.240Z,22.98
2019-05-22T02:37:36.197Z,22.98
2019-05-22T02:40:39.055Z,22.30
2019-05-22T02:43:17.561Z,22.62
2019-05-22T02:46:07.541Z,22.45
2019-05-22T02:48:44.359Z,23.60
2019-05-22T02:51:27.948Z,22.85
2019-05-22T02:56:48.266Z,24.05
2019-05-22T02:59:31.368Z,24.30
2019-05-22T03:02:10.994Z,23.52
2019-05-22T03:04:58.340Z,25.25
2019-05-22T03:07:42.706Z,26.00
2019-05-22T03:10:28.544Z,25.75
2019-05-22T03:13:05.384Z,26.73
2019-05-22T03:15:42.027Z,24.32
2019-05-22T03:21:18.159Z,22.77
2019-05-22T03:24:07.480Z,23.38
2019-05-22T03:26:56.005Z,23.32
2019-05-22T03:29:59.278Z,23.12
2019-05-22T03:32:50.423Z,22.90
2019-05-22T03:35:41.664Z,23.02
2019-05-22T03:38:26.669Z,22.32
2019-05-22T03:41:03.755Z,22.52
2019-05-22T03:43:42.043Z,23.35
2019-05-22T03:46:35.245Z,22.58
2019-05-22T03:49:29.315Z,22.90
2019-05-22T03:52:02.228Z,23.18
2019-05-22T03:54:51.562Z,22.22
2019-05-22T03:57:33.427Z,22.65
2019-05-22T04:00:12.530Z,23.35
2019-05-22T04:03:01.698Z,21.85
2019-05-22T04:05:38.724Z,22.05
2019-05-22T04:08:24.958Z,23.42
2019-05-22T04:11:16.911Z,23.52
2019-05-22T04:14:07.791Z,23.02
2019-05-22T04:16:59.020Z,23.90
2019-05-22T04:19:49.507Z,23.12
2019-05-22T04:22:27.051Z,22.05
2019-05-22T04:25:16.141Z,21.80
2019-05-22T04:27:45.730Z,21.93
2019-05-22T04:30:30.191Z,21.35
2019-05-22T04:33:06.827Z,20.82
2019-05-22T04:35:49.284Z,21.60
2019-05-22T04:38:25.648Z,20.72
2019-05-22T04:41:12.359Z,19.75
2019-05-22T04:43:55.394Z,20.52
2019-05-22T04:46:44.389Z,20.75
2019-05-22T04:49:20.264Z,20.72
2019-05-22T04:52:03.185Z,21.55
2019-05-22T04:54:45.927Z,21.45
2019-05-22T04:57:28.258Z,20.73
2019-05-22T05:00:04.362Z,21.68
2019-05-22T05:02:41.234Z,20.37
2019-05-22T05:05:25.244Z,20.68
2019-05-22T05:08:08.535Z,21.45
2019-05-22T05:10:45.786Z,20.70
2019-05-22T05:13:21.499Z,19.90
2019-05-22T05:16:04.474Z,20.50
2019-05-22T05:18:40.237Z,22.07
2019-05-22T05:21:22.820Z,22.90
2019-05-22T05:24:13.074Z,23.38
2019-05-22T05:26:57.275Z,23.65
2019-05-22T05:29:35.170Z,25.88
2019-05-22T05:32:18.647Z,27.13
2019-05-22T05:34:59.809Z,25.62
2019-05-22T05:37:43.961Z,27.67
2019-05-22T05:40:46.420Z,28.02
2019-05-22T05:43:30.208Z,28.02
2019-05-22T05:46:13.417Z,29.30
2019-05-22T05:48:56.077Z,29.85
2019-05-22T05:51:36.519Z,32.00
2019-05-22T05:54:21.204Z,30.68
2019-05-22T05:57:25.201Z,27.10
2019-05-22T06:00:10.463Z,25.48
2019-05-22T06:02:56.773Z,25.17
2019-05-22T06:05:45.085Z,24.90
2019-05-22T06:08:21.516Z,24.00
2019-05-22T06:11:14.786Z,23.05
2019-05-22T06:13:56.904Z,22.93
2019-05-22T06:16:46.380Z,21.10
2019-05-22T06:19:31.054Z,20.45
2019-05-22T06:22:09.264Z,21.80
2019-05-22T06:25:05.442Z,20.95
2019-05-22T06:27:56.949Z,19.12
2019-05-22T06:30:50.435Z,18.30
2019-05-22T06:33:38.903Z,17.85
2019-05-22T06:36:24.826Z,18.85
2019-05-22T06:39:10.112Z,17.98
2019-05-22T06:41:55.178Z,16.60
2019-05-22T06:44:44.669Z,16.15
2019-05-22T06:47:29.323Z,17.20
2019-05-22T06:50:11.985Z,15.88
2019-05-22T06:53:08.865Z,16.50
2019-05-22T06:55:32.027Z,16.73
2019-05-22T06:58:15.855Z,15.40
2019-05-22T07:00:59.073Z,13.98
2019-05-22T07:03:42.409Z,13.70
2019-05-22T07:06:18.720Z,12.88
2019-05-22T07:09:00.762Z,12.93
2019-05-22T07:11:37.931Z,13.28
2019-05-22T07:14:21.330Z,13.08
2019-05-22T07:16:59.470Z,12.68
2019-05-22T07:19:41.791Z,13.03
2019-05-22T07:22:18.325Z,12.35
2019-05-22T07:25:01.046Z,12.05
2019-05-22T07:27:45.286Z,10.83
2019-05-22T07:30:27.980Z,11.53
2019-05-22T07:33:05.475Z,10.03
2019-05-22T07:36:07.915Z,8.40
2019-05-22T07:38:33.307Z,8.33
2019-05-22T07:41:09.273Z,7.75
2019-05-22T07:43:58.714Z,7.53
2019-05-22T07:46:35.310Z,10.40
2019-05-22T07:49:19.475Z,9.25
2019-05-22T07:52:08.731Z,11.00
2019-05-22T07:54:52.747Z,10.72
2019-05-22T07:57:38.273Z,10.85
2019-05-22T08:00:21.250Z,10.05
2019-05-22T08:02:57.687Z,10.00
2019-05-22T08:05:34.494Z,9.50
2019-05-22T08:08:24.458Z,10.50
2019-05-22T08:11:00.802Z,9.75
2019-05-22T08:13:45.041Z,8.78
2019-05-22T08:16:35.557Z,10.15
2019-05-22T08:19:18.454Z,10.95
2019-05-22T08:22:07.244Z,11.68
2019-05-22T08:24:53.677Z,10.93
2019-05-22T08:27:36.537Z,10.43
2019-05-22T08:30:16.965Z,10.50
2019-05-22T08:33:01.158Z,13.53
2019-05-22T08:35:45.394Z,14.03
2019-05-22T08:38:28.054Z,14.07
2019-05-22T08:41:13.176Z,14.77
2019-05-22T08:44:16.366Z,13.85
2019-05-22T08:46:41.226Z,12.25
2019-05-22T08:49:24.834Z,13.38
2019-05-22T08:52:00.708Z,13.32
2019-05-22T08:54:45.873Z,12.53
2019-05-22T08:57:36.348Z,11.65
2019-05-22T09:00:22.671Z,11.22
2019-05-22T09:03:11.874Z,11.78
2019-05-22T09:08:54.582Z,10.93
2019-05-22T09:11:37.151Z,11.08
2019-05-22T09:14:13.086Z,10.75
2019-05-22T09:16:55.843Z,10.63
2019-05-22T09:19:38.551Z,9.88
2019-05-22T09:22:40.072Z,11.22
2019-05-22T09:25:10.202Z,10.43
2019-05-22T09:27:53.630Z,9.43
2019-05-22T09:33:12.726Z,8.18
2019-05-22T09:36:02.214Z,9.83
2019-05-22T09:38:45.986Z,9.80
2019-05-22T09:41:23.723Z,10.30
2019-05-22T09:44:15.430Z,8.28
2019-05-22T09:46:58.610Z,7.70
2019-05-22T09:49:34.566Z,7.33
2019-05-22T09:52:25.065Z,7.55
2019-05-22T09:55:07.822Z,7.08
2019-05-22T09:57:44.666Z,6.72
2019-05-22T10:00:28.553Z,7.53
2019-05-22T10:03:05.757Z,6.90
2019-05-22T10:05:55.642Z,7.25
2019-05-22T10:08:31.900Z,7.47
2019-05-22T10:11:14.470Z,6.37
2019-05-22T10:14:03.583Z,7.23
2019-05-22T10:16:46.065Z,7.12
2019-05-22T10:19:22.772Z,7.15
2019-05-22T10:22:05.620Z,7.08
2019-05-22T10:24:42.262Z,6.17
2019-05-22T10:27:31.785Z,8.18
2019-05-22T10:30:19.063Z,8.00
2019-05-22T10:32:55.318Z,6.47
2019-05-22T10:35:39.851Z,5.70
2019-05-22T10:38:22.889Z,5.25
2019-05-22T10:41:13.431Z,5.75
2019-05-22T10:43:55.909Z,6.78
2019-05-22T10:46:32.366Z,7.75
2019-05-22T10:49:14.977Z,7.60
2019-05-22T10:51:51.616Z,5.87
2019-05-22T10:54:27.379Z,6.72
2019-05-22T10:57:10.066Z,6.47
2019-05-22T10:59:59.288Z,7.30
2019-05-22T11:02:35.065Z,6.97
2019-05-22T11:08:04.225Z,6.92
2019-05-22T11:10:40.615Z,6.77
2019-05-22T11:13:23.873Z,5.92
2019-05-22T11:15:52.694Z,6.28
2019-05-22T11:18:35.780Z,6.58
2019-05-22T11:21:26.388Z,6.20
2019-05-22T11:24:09.725Z,6.20
2019-05-22T11:26:53.634Z,4.42
2019-05-22T11:29:29.835Z,4.58
2019-05-22T11:32:07.122Z,4.97
2019-05-22T11:34:50.338Z,4.67
2019-05-22T11:37:33.165Z,4.20
2019-05-22T11:40:09.488Z,3.60
2019-05-22T11:42:46.529Z,3.55
2019-05-22T11:45:30.133Z,4.60
2019-05-22T11:50:43.501Z,4.60
2019-05-22T11:53:13.590Z,4.10
2019-05-22T11:55:57.439Z,3.98
2019-05-22T11:58:31.405Z,4.75
2019-05-22T12:01:13.427Z,4.30
2019-05-22T12:03:50.487Z,3.87
2019-05-22T12:06:26.816Z,4.00
2019-05-22T12:09:11.188Z,3.90
2019-05-22T12:12:00.107Z,4.40
2019-05-22T12:14:49.016Z,3.72
2019-05-22T12:22:32.078Z,3.58
2019-05-22T12:25:25.484Z,4.00
2019-05-22T12:28:15.063Z,4.00
2019-05-22T12:30:58.370Z,3.95
2019-05-22T12:33:47.495Z,4.40
2019-05-22T12:36:14.547Z,4.00
2019-05-22T12:39:03.736Z,3.40
2019-05-22T12:41:54.197Z,4.15
2019-05-22T12:44:21.235Z,4.17
2019-05-22T12:47:11.795Z,3.80
2019-05-22T12:50:02.858Z,4.00
2019-05-22T12:57:53.247Z,3.40
2019-05-22T13:00:42.985Z,3.22
2019-05-22T13:03:27.370Z,4.33
2019-05-22T13:06:03.937Z,3.52
2019-05-22T13:08:47.541Z,3.70
2019-05-22T13:11:36.661Z,3.72
2019-05-22T13:14:26.532Z,3.80
2019-05-22T13:17:02.433Z,3.80
2019-05-22T13:19:47.430Z,7.25
2019-05-22T13:22:16.427Z,3.90
2019-05-22T13:25:05.738Z,3.47
2019-05-22T13:27:43.623Z,3.83
2019-05-22T13:30:30.375Z,3.33
2019-05-22T13:33:22.506Z,3.70
2019-05-22T13:36:11.622Z,3.80
2019-05-22T13:41:27.512Z,3.77
2019-05-22T13:44:18.645Z,4.08
2019-05-22T13:49:28.828Z,3.60
2019-05-22T13:54:44.067Z,3.20
2019-05-22T13:57:34.393Z,3.40
2019-05-22T14:00:22.210Z,3.67
2019-05-22T14:03:12.961Z,3.27
2019-05-22T14:05:41.962Z,3.10
2019-05-22T14:10:53.311Z,3.22
2019-05-22T14:13:42.940Z,3.60
2019-05-22T14:16:47.655Z,3.22
2019-05-22T14:19:18.361Z,3.10
2019-05-22T14:22:00.454Z,3.42
2019-05-22T14:24:49.899Z,3.65
2019-05-22T14:27:41.528Z,3.37
2019-05-22T14:30:26.947Z,3.52
2019-05-22T14:33:16.374Z,3.92
2019-05-22T14:36:06.575Z,3.72
2019-05-22T14:38:48.969Z,3.98
2019-05-22T14:41:25.086Z,3.52
2019-05-22T14:44:17.284Z,3.80
2019-05-22T14:46:53.625Z,3.65
2019-05-22T14:49:36.788Z,3.60
2019-05-22T14:52:20.423Z,4.03
2019-05-22T14:55:10.041Z,3.40
2019-05-22T14:57:59.738Z,4.70
2019-05-22T15:00:26.776Z,3.55
2019-05-22T15:05:44.374Z,3.52
2019-05-22T15:08:34.197Z,4.10
2019-05-22T15:11:25.445Z,3.87
2019-05-22T15:14:08.412Z,3.52
2019-05-22T15:16:44.481Z,4.70
2019-05-22T15:19:22.398Z,4.37
2019-05-22T15:21:58.979Z,5.00
2019-05-22T15:24:42.186Z,5.20
2019-05-22T15:29:59.621Z,5.87
2019-05-22T15:32:47.985Z,7.70
2019-05-22T15:35:38.158Z,7.60
2019-05-22T15:38:16.412Z,8.38
2019-05-22T15:41:00.353Z,8.63
2019-05-22T15:43:53.180Z,10.70
2019-05-22T15:46:44.387Z,11.50
2019-05-22T15:49:19.260Z,10.40
2019-05-22T15:54:31.085Z,10.50
2019-05-22T15:57:18.922Z,9.15
2019-05-22T16:00:01.432Z,9.65
2019-05-22T16:02:46.689Z,8.00
2019-05-22T16:05:39.058Z,8.70
2019-05-22T16:08:30.027Z,8.78
2019-05-22T16:11:10.403Z,8.65
2019-05-22T16:14:00.404Z,9.15
2019-05-22T16:16:38.240Z,9.03
2019-05-22T16:19:24.230Z,7.70
2019-05-22T16:22:03.765Z,8.45
2019-05-22T16:24:46.707Z,8.10
2019-05-22T16:27:13.737Z,8.38
2019-05-22T16:30:03.727Z,7.30
2019-05-22T16:32:54.155Z,7.62
2019-05-22T16:35:21.967Z,7.80
2019-05-22T16:38:04.688Z,7.50
2019-05-22T16:40:50.741Z,7.20
2019-05-22T16:43:47.339Z,7.03
2019-05-22T16:46:06.173Z,6.65
2019-05-22T16:48:50.336Z,6.60
2019-05-22T16:51:18.622Z,6.58
2019-05-22T16:54:11.239Z,6.25
2019-05-22T16:57:00.377Z,9.80
2019-05-22T16:59:51.661Z,8.78
2019-05-22T17:02:34.387Z,6.53
2019-05-22T17:05:20.045Z,7.00
2019-05-22T17:08:10.250Z,7.65
2019-05-22T17:11:00.114Z,5.90
2019-05-22T17:13:44.096Z,6.45
2019-05-22T17:16:28.546Z,5.53
2019-05-22T17:19:26.350Z,6.55
2019-05-22T17:21:52.054Z,5.70
2019-05-22T17:24:35.319Z,6.60
2019-05-22T17:27:13.821Z,5.92
2019-05-22T17:29:59.890Z,6.10
2019-05-22T17:32:42.878Z,6.15
2019-05-22T17:35:22.301Z,6.60
2019-05-22T17:38:12.228Z,6.75
2019-05-22T17:40:55.323Z,6.75
2019-05-22T17:44:07.083Z,6.92
2019-05-22T17:46:57.219Z,7.30
2019-05-22T17:49:34.842Z,6.75
2019-05-22T17:52:18.680Z,7.25
2019-05-22T17:55:08.826Z,7.12
2019-05-22T17:57:39.192Z,6.80
2019-05-22T18:00:33.761Z,6.37
2019-05-22T18:03:25.371Z,7.20
2019-05-22T18:06:14.686Z,5.58
2019-05-22T18:09:04.257Z,8.18
2019-05-22T18:11:47.484Z,11.00
2019-05-22T18:14:23.487Z,10.55
2019-05-22T18:17:06.058Z,8.95
2019-05-22T18:19:48.687Z,7.30
2019-05-22T18:22:23.485Z,7.90
2019-05-22T18:25:05.721Z,9.35
2019-05-22T18:27:42.175Z,8.45
2019-05-22T18:30:24.751Z,7.92
2019-05-22T19:07:24.993Z,12.88
2019-05-22T19:10:01.836Z,12.10
2019-05-22T19:12:38.584Z,10.13
2019-05-22T19:15:09.253Z,10.15
2019-05-22T19:17:45.515Z,9.30
2019-05-22T19:20:16.484Z,9.93
2019-05-22T19:23:01.787Z,11.85
2019-05-22T19:25:31.420Z,19.20
2019-05-22T19:28:07.943Z,19.23
2019-05-22T19:30:37.919Z,20.57
2019-05-22T19:33:07.830Z,39.13
2019-05-22T19:35:44.404Z,60.20
2019-05-22T19:38:14.135Z,100.82
2019-05-22T19:40:51.025Z,44.10
2019-05-22T19:43:20.607Z,40.23
2019-05-22T19:45:57.093Z,32.35
2019-05-22T19:48:26.803Z,36.33
2019-05-22T19:51:03.373Z,26.45
2019-05-22T19:53:33.788Z,19.37
2019-05-22T19:56:10.462Z,13.80
2019-05-22T19:58:40.909Z,12.55
2019-05-22T20:01:24.979Z,15.10
2019-05-22T20:03:54.699Z,14.05
2019-05-22T20:06:38.910Z,13.18
2019-05-22T20:09:11.447Z,14.47
2019-05-22T20:11:41.890Z,12.95
2019-05-22T20:14:18.700Z,12.58
2019-05-22T20:16:48.466Z,14.20
2019-05-22T20:19:24.597Z,14.98
2019-05-22T20:21:55.042Z,14.95
2019-05-22T20:24:38.509Z,14.28
2019-05-22T20:27:09.778Z,13.98
2019-05-22T20:29:47.331Z,13.08
2019-05-22T20:32:17.104Z,13.22
2019-05-22T20:34:54.158Z,13.80
2019-05-22T20:37:23.779Z,12.95
2019-05-22T20:40:00.593Z,12.65
2019-05-22T20:42:31.996Z,13.38
2019-05-22T20:45:08.434Z,12.00
2019-05-22T20:47:42.033Z,12.43
2019-05-22T20:50:18.858Z,13.03
2019-05-22T20:52:49.760Z,13.00
2019-05-22T20:55:20.215Z,13.13
2019-05-22T20:57:58.321Z,13.20
2019-05-22T21:00:36.780Z,13.48
2019-05-22T21:03:08.326Z,13.72
2019-05-22T21:05:45.438Z,13.83
2019-05-22T21:08:24.474Z,13.88
2019-05-22T21:11:09.306Z,14.20
2019-05-22T21:13:39.846Z,14.18
2019-05-22T21:16:18.189Z,14.95
2019-05-22T21:18:50.066Z,15.65
2019-05-22T21:21:30.878Z,14.85
2019-05-22T21:24:10.330Z,15.00
2019-05-22T21:26:38.901Z,15.40
2019-05-22T21:29:09.103Z,14.75
2019-05-22T21:31:52.552Z,15.20
2019-05-22T21:34:22.333Z,15.95
2019-05-22T21:36:59.151Z,17.65
2019-05-22T21:39:29.688Z,19.02
2019-05-22T21:42:05.397Z,19.12
2019-05-22T21:44:35.185Z,20.30
2019-05-22T21:47:12.865Z,19.55
2019-05-22T21:49:44.323Z,20.50
2019-05-22T21:52:20.549Z,22.02
2019-05-22T21:54:57.192Z,24.10
2019-05-22T21:57:26.858Z,22.52
2019-05-22T22:00:03.779Z,24.18
2019-05-22T22:02:38.729Z,25.43
2019-05-22T22:05:15.637Z,25.32
2019-05-22T22:07:52.840Z,26.48
2019-05-22T22:10:35.342Z,26.75
2019-05-22T22:13:07.885Z,28.35
2019-05-22T22:15:47.962Z,27.93
2019-05-22T22:18:17.992Z,28.10
2019-05-22T22:20:54.676Z,28.40
2019-05-22T22:23:25.241Z,29.45
2019-05-22T22:26:01.669Z,28.45
2019-05-22T22:28:31.351Z,28.23
2019-05-22T22:31:19.651Z,28.85
2019-05-22T22:33:54.377Z,26.87
2019-05-22T22:36:30.979Z,30.12
2019-05-22T22:39:11.327Z,31.55
2019-05-22T22:41:48.788Z,31.00
2019-05-22T22:44:18.882Z,30.17
2019-05-22T22:47:02.813Z,28.20
2019-05-22T22:49:32.926Z,29.75
2019-05-22T22:52:10.435Z,26.97
2019-05-22T22:54:40.496Z,30.65
2019-05-22T22:57:18.120Z,28.47
2019-05-22T22:59:55.194Z,29.75
2019-05-22T23:02:36.500Z,30.82
2019-05-22T23:05:09.230Z,30.23
2019-05-22T23:07:46.137Z,26.82
2019-05-22T23:10:23.137Z,29.18
2019-05-22T23:13:02.193Z,26.05
2019-05-22T23:15:33.241Z,28.75
2019-05-22T23:18:10.034Z,28.52
2019-05-22T23:20:45.814Z,30.05
2019-05-22T23:23:13.909Z,29.98
2019-05-22T23:25:50.286Z,30.25
2019-05-22T23:28:34.795Z,30.50
2019-05-22T23:30:59.785Z,32.00
2019-05-22T23:33:44.066Z,32.08
2019-05-22T23:36:22.000Z,30.48
2019-05-22T23:38:59.813Z,27.75
2019-05-22T23:41:32.544Z,32.55
2019-05-22T23:44:09.444Z,31.05
2019-05-22T23:46:46.374Z,32.30
2019-05-22T23:49:22.954Z,29.12
2019-05-22T23:51:53.185Z,29.85
2019-05-22T23:54:24.247Z,27.95
2019-05-22T23:57:02.183Z,26.00
2019-05-22T23:59:33.865Z,27.95
